sensor_id;sensor_type;location;lat;lon;timestamp;P1;durP1;ratioP1;P2;durP2;ratioP2
11425;SDS011;5769;47.998;7.788;2023-07-31T00:01:04;325.70;;;54.90;;
11425;SDS011;5769;47.998;7.788;2023-07-31T00:03:31;325.27;;;55.15;;
11425;SDS011;5769;47.998;7.788;2023-07-31T00:05:58;324.17;;;53.88;;
11425;SDS011;5769;47.998;7.788;2023-07-31T00:08:26;325.63;;;54.28;;
11425;SDS011;5769;47.998;7.788;2023-07-31T00:10:52;323.80;;;54.65;;
11425;SDS011;5769;47.998;7.788;2023-07-31T00:13:19;325.13;;;55.33;;
11425;SDS011;5769;47.998;7.788;2023-07-31T00:15:46;326.98;;;54.70;;
11425;SDS011;5769;47.998;7.788;2023-07-31T00:18:13;325.90;;;55.05;;
11425;SDS011;5769;47.998;7.788;2023-07-31T00:20:39;324.33;;;54.60;;
11425;SDS011;5769;47.998;7.788;2023-07-31T00:23:06;326.88;;;55.38;;
11425;SDS011;5769;47.998;7.788;2023-07-31T00:25:34;325.10;;;54.63;;
11425;SDS011;5769;47.998;7.788;2023-07-31T00:28:01;326.80;;;54.75;;
11425;SDS011;5769;47.998;7.788;2023-07-31T00:30:28;325.50;;;54.38;;
11425;SDS011;5769;47.998;7.788;2023-07-31T00:32:54;325.40;;;54.17;;
11425;SDS011;5769;47.998;7.788;2023-07-31T00:35:21;326.50;;;54.40;;
11425;SDS011;5769;47.998;7.788;2023-07-31T00:37:48;324.30;;;54.65;;
11425;SDS011;5769;47.998;7.788;2023-07-31T00:40:15;325.60;;;54.45;;
11425;SDS011;5769;47.998;7.788;2023-07-31T00:42:43;323.55;;;54.53;;
11425;SDS011;5769;47.998;7.788;2023-07-31T00:45:09;324.83;;;54.78;;
11425;SDS011;5769;47.998;7.788;2023-07-31T00:47:36;327.80;;;54.50;;
11425;SDS011;5769;47.998;7.788;2023-07-31T00:50:03;327.23;;;55.08;;
11425;SDS011;5769;47.998;7.788;2023-07-31T00:52:30;326.08;;;54.88;;
11425;SDS011;5769;47.998;7.788;2023-07-31T00:54:57;324.98;;;54.80;;
11425;SDS011;5769;47.998;7.788;2023-07-31T00:57:24;326.67;;;55.65;;
11425;SDS011;5769;47.998;7.788;2023-07-31T00:59:53;326.27;;;54.47;;
11425;SDS011;5769;47.998;7.788;2023-07-31T01:02:19;325.67;;;54.42;;
11425;SDS011;5769;47.998;7.788;2023-07-31T01:04:46;323.88;;;55.00;;
11425;SDS011;5769;47.998;7.788;2023-07-31T01:07:13;326.88;;;54.28;;
11425;SDS011;5769;47.998;7.788;2023-07-31T01:09:47;325.83;;;54.00;;
11425;SDS011;5769;47.998;7.788;2023-07-31T01:12:23;327.30;;;54.50;;
11425;SDS011;5769;47.998;7.788;2023-07-31T01:14:50;326.45;;;54.28;;
11425;SDS011;5769;47.998;7.788;2023-07-31T01:17:27;326.50;;;55.53;;
11425;SDS011;5769;47.998;7.788;2023-07-31T01:19:54;326.25;;;54.47;;
11425;SDS011;5769;47.998;7.788;2023-07-31T01:22:30;324.70;;;54.00;;
11425;SDS011;5769;47.998;7.788;2023-07-31T01:25:09;324.42;;;54.00;;
11425;SDS011;5769;47.998;7.788;2023-07-31T01:27:50;325.27;;;55.00;;
11425;SDS011;5769;47.998;7.788;2023-07-31T01:30:25;326.63;;;54.72;;
11425;SDS011;5769;47.998;7.788;2023-07-31T01:32:58;326.05;;;54.30;;
11425;SDS011;5769;47.998;7.788;2023-07-31T01:35:27;327.58;;;54.95;;
11425;SDS011;5769;47.998;7.788;2023-07-31T01:37:54;324.88;;;55.17;;
11425;SDS011;5769;47.998;7.788;2023-07-31T01:40:21;324.98;;;54.25;;
11425;SDS011;5769;47.998;7.788;2023-07-31T01:42:49;326.08;;;54.40;;
11425;SDS011;5769;47.998;7.788;2023-07-31T01:45:16;326.00;;;54.92;;
11425;SDS011;5769;47.998;7.788;2023-07-31T01:47:42;325.63;;;54.35;;
11425;SDS011;5769;47.998;7.788;2023-07-31T01:50:09;326.48;;;54.60;;
11425;SDS011;5769;47.998;7.788;2023-07-31T01:52:36;326.92;;;55.10;;
11425;SDS011;5769;47.998;7.788;2023-07-31T01:55:03;324.52;;;54.55;;
11425;SDS011;5769;47.998;7.788;2023-07-31T01:57:30;324.48;;;54.08;;
11425;SDS011;5769;47.998;7.788;2023-07-31T01:59:58;325.77;;;54.15;;
11425;SDS011;5769;47.998;7.788;2023-07-31T02:02:25;327.45;;;54.72;;
11425;SDS011;5769;47.998;7.788;2023-07-31T02:04:51;325.48;;;54.33;;
11425;SDS011;5769;47.998;7.788;2023-07-31T02:07:18;325.95;;;54.90;;
11425;SDS011;5769;47.998;7.788;2023-07-31T02:09:45;325.50;;;54.17;;
11425;SDS011;5769;47.998;7.788;2023-07-31T02:12:13;325.55;;;54.22;;
11425;SDS011;5769;47.998;7.788;2023-07-31T02:14:40;326.30;;;55.75;;
11425;SDS011;5769;47.998;7.788;2023-07-31T02:17:08;328.08;;;54.85;;
11425;SDS011;5769;47.998;7.788;2023-07-31T02:19:35;325.90;;;54.45;;
11425;SDS011;5769;47.998;7.788;2023-07-31T02:22:01;326.48;;;54.38;;
11425;SDS011;5769;47.998;7.788;2023-07-31T02:24:28;325.73;;;55.10;;
11425;SDS011;5769;47.998;7.788;2023-07-31T02:26:56;325.38;;;54.80;;
11425;SDS011;5769;47.998;7.788;2023-07-31T02:29:23;326.20;;;54.70;;
11425;SDS011;5769;47.998;7.788;2023-07-31T02:31:50;325.05;;;54.40;;
11425;SDS011;5769;47.998;7.788;2023-07-31T02:34:18;325.10;;;55.03;;
11425;SDS011;5769;47.998;7.788;2023-07-31T02:36:44;326.02;;;54.47;;
11425;SDS011;5769;47.998;7.788;2023-07-31T02:39:11;325.80;;;53.92;;
11425;SDS011;5769;47.998;7.788;2023-07-31T02:41:38;326.08;;;54.85;;
11425;SDS011;5769;47.998;7.788;2023-07-31T02:44:05;327.73;;;55.03;;
11425;SDS011;5769;47.998;7.788;2023-07-31T02:46:31;325.10;;;53.83;;
11425;SDS011;5769;47.998;7.788;2023-07-31T02:48:58;326.77;;;55.13;;
11425;SDS011;5769;47.998;7.788;2023-07-31T02:51:26;326.65;;;55.20;;
11425;SDS011;5769;47.998;7.788;2023-07-31T02:53:53;326.55;;;53.95;;
11425;SDS011;5769;47.998;7.788;2023-07-31T02:56:19;326.73;;;54.40;;
11425;SDS011;5769;47.998;7.788;2023-07-31T02:58:46;327.17;;;55.28;;
11425;SDS011;5769;47.998;7.788;2023-07-31T03:01:13;324.10;;;53.88;;
11425;SDS011;5769;47.998;7.788;2023-07-31T03:03:40;324.17;;;54.35;;
11425;SDS011;5769;47.998;7.788;2023-07-31T03:06:07;324.30;;;54.85;;
11425;SDS011;5769;47.998;7.788;2023-07-31T03:08:36;324.90;;;54.00;;
11425;SDS011;5769;47.998;7.788;2023-07-31T03:11:02;325.83;;;54.60;;
11425;SDS011;5769;47.998;7.788;2023-07-31T03:13:29;325.23;;;54.15;;
11425;SDS011;5769;47.998;7.788;2023-07-31T03:15:56;326.85;;;54.83;;
11425;SDS011;5769;47.998;7.788;2023-07-31T03:18:22;325.02;;;53.80;;
11425;SDS011;5769;47.998;7.788;2023-07-31T03:20:49;328.45;;;54.80;;
11425;SDS011;5769;47.998;7.788;2023-07-31T03:23:16;325.45;;;54.60;;
11425;SDS011;5769;47.998;7.788;2023-07-31T03:25:56;324.58;;;54.20;;
11425;SDS011;5769;47.998;7.788;2023-07-31T03:28:23;325.15;;;54.30;;
11425;SDS011;5769;47.998;7.788;2023-07-31T03:30:50;324.17;;;54.08;;
11425;SDS011;5769;47.998;7.788;2023-07-31T03:33:17;324.10;;;53.83;;
11425;SDS011;5769;47.998;7.788;2023-07-31T03:35:44;325.10;;;54.25;;
11425;SDS011;5769;47.998;7.788;2023-07-31T03:38:11;325.52;;;53.95;;
11425;SDS011;5769;47.998;7.788;2023-07-31T03:40:38;326.10;;;54.50;;
11425;SDS011;5769;47.998;7.788;2023-07-31T03:43:07;324.10;;;55.15;;
11425;SDS011;5769;47.998;7.788;2023-07-31T03:45:33;325.70;;;54.35;;
11425;SDS011;5769;47.998;7.788;2023-07-31T03:48:00;325.33;;;54.20;;
11425;SDS011;5769;47.998;7.788;2023-07-31T03:50:27;325.65;;;54.45;;
11425;SDS011;5769;47.998;7.788;2023-07-31T03:52:53;324.20;;;54.50;;
11425;SDS011;5769;47.998;7.788;2023-07-31T03:55:20;324.23;;;54.33;;
11425;SDS011;5769;47.998;7.788;2023-07-31T03:57:47;325.83;;;54.63;;
11425;SDS011;5769;47.998;7.788;2023-07-31T04:00:16;325.13;;;54.42;;
11425;SDS011;5769;47.998;7.788;2023-07-31T04:02:42;325.85;;;55.13;;
11425;SDS011;5769;47.998;7.788;2023-07-31T04:05:09;328.00;;;54.28;;
11425;SDS011;5769;47.998;7.788;2023-07-31T04:07:36;325.15;;;53.75;;
11425;SDS011;5769;47.998;7.788;2023-07-31T04:10:03;326.13;;;54.25;;
11425;SDS011;5769;47.998;7.788;2023-07-31T04:12:30;325.83;;;54.25;;
11425;SDS011;5769;47.998;7.788;2023-07-31T04:14:57;326.65;;;54.53;;
11425;SDS011;5769;47.998;7.788;2023-07-31T04:17:25;325.95;;;54.03;;
11425;SDS011;5769;47.998;7.788;2023-07-31T04:19:52;324.95;;;53.83;;
11425;SDS011;5769;47.998;7.788;2023-07-31T04:22:19;325.88;;;54.03;;
11425;SDS011;5769;47.998;7.788;2023-07-31T04:24:45;326.60;;;54.90;;
11425;SDS011;5769;47.998;7.788;2023-07-31T04:27:12;325.90;;;54.45;;
11425;SDS011;5769;47.998;7.788;2023-07-31T04:29:39;327.20;;;54.70;;
11425;SDS011;5769;47.998;7.788;2023-07-31T04:32:07;325.52;;;54.65;;
11425;SDS011;5769;47.998;7.788;2023-07-31T04:34:35;326.35;;;55.10;;
11425;SDS011;5769;47.998;7.788;2023-07-31T04:37:02;324.98;;;54.47;;
11425;SDS011;5769;47.998;7.788;2023-07-31T04:39:29;327.67;;;54.92;;
11425;SDS011;5769;47.998;7.788;2023-07-31T04:41:56;326.35;;;54.40;;
11425;SDS011;5769;47.998;7.788;2023-07-31T04:44:23;325.23;;;55.03;;
11425;SDS011;5769;47.998;7.788;2023-07-31T04:46:49;325.50;;;54.05;;
11425;SDS011;5769;47.998;7.788;2023-07-31T04:49:16;325.63;;;54.20;;
11425;SDS011;5769;47.998;7.788;2023-07-31T04:51:48;326.38;;;54.30;;
11425;SDS011;5769;47.998;7.788;2023-07-31T04:54:15;325.23;;;54.28;;
11425;SDS011;5769;47.998;7.788;2023-07-31T04:56:42;325.25;;;54.53;;
11425;SDS011;5769;47.998;7.788;2023-07-31T04:59:08;327.42;;;54.60;;
11425;SDS011;5769;47.998;7.788;2023-07-31T05:01:35;323.52;;;54.20;;
11425;SDS011;5769;47.998;7.788;2023-07-31T05:04:02;326.42;;;55.05;;
11425;SDS011;5769;47.998;7.788;2023-07-31T05:06:29;326.42;;;54.60;;
11425;SDS011;5769;47.998;7.788;2023-07-31T05:08:57;325.02;;;54.78;;
11425;SDS011;5769;47.998;7.788;2023-07-31T05:11:24;325.73;;;55.17;;
11425;SDS011;5769;47.998;7.788;2023-07-31T05:13:50;327.05;;;55.92;;
11425;SDS011;5769;47.998;7.788;2023-07-31T05:16:17;325.10;;;54.97;;
11425;SDS011;5769;47.998;7.788;2023-07-31T05:18:44;326.27;;;55.00;;
11425;SDS011;5769;47.998;7.788;2023-07-31T05:21:11;327.83;;;55.30;;
11425;SDS011;5769;47.998;7.788;2023-07-31T05:23:37;326.10;;;55.45;;
11425;SDS011;5769;47.998;7.788;2023-07-31T05:26:06;329.73;;;54.97;;
11425;SDS011;5769;47.998;7.788;2023-07-31T05:28:34;324.63;;;54.63;;
11425;SDS011;5769;47.998;7.788;2023-07-31T05:31:01;326.35;;;55.10;;
11425;SDS011;5769;47.998;7.788;2023-07-31T05:33:29;324.75;;;54.80;;
11425;SDS011;5769;47.998;7.788;2023-07-31T05:35:56;326.48;;;54.20;;
11425;SDS011;5769;47.998;7.788;2023-07-31T05:38:22;327.15;;;54.35;;
11425;SDS011;5769;47.998;7.788;2023-07-31T05:40:49;325.30;;;54.47;;
11425;SDS011;5769;47.998;7.788;2023-07-31T05:43:17;326.83;;;54.25;;
11425;SDS011;5769;47.998;7.788;2023-07-31T05:45:44;327.55;;;54.28;;
11425;SDS011;5769;47.998;7.788;2023-07-31T05:48:11;326.15;;;54.42;;
11425;SDS011;5769;47.998;7.788;2023-07-31T05:50:37;324.52;;;54.05;;
11425;SDS011;5769;47.998;7.788;2023-07-31T05:53:05;326.35;;;54.28;;
11425;SDS011;5769;47.998;7.788;2023-07-31T05:55:33;324.50;;;54.53;;
11425;SDS011;5769;47.998;7.788;2023-07-31T05:57:59;327.17;;;54.92;;
11425;SDS011;5769;47.998;7.788;2023-07-31T06:00:27;327.88;;;54.05;;
11425;SDS011;5769;47.998;7.788;2023-07-31T06:02:54;325.67;;;54.85;;
11425;SDS011;5769;47.998;7.788;2023-07-31T06:05:21;329.52;;;54.58;;
11425;SDS011;5769;47.998;7.788;2023-07-31T06:07:48;327.25;;;55.00;;
11425;SDS011;5769;47.998;7.788;2023-07-31T06:10:15;326.17;;;54.60;;
11425;SDS011;5769;47.998;7.788;2023-07-31T06:12:41;323.75;;;54.33;;
11425;SDS011;5769;47.998;7.788;2023-07-31T06:15:08;325.40;;;53.92;;
11425;SDS011;5769;47.998;7.788;2023-07-31T06:17:39;326.10;;;53.40;;
11425;SDS011;5769;47.998;7.788;2023-07-31T06:20:07;326.95;;;54.30;;
11425;SDS011;5769;47.998;7.788;2023-07-31T06:22:35;326.77;;;54.08;;
11425;SDS011;5769;47.998;7.788;2023-07-31T06:25:01;326.45;;;54.05;;
11425;SDS011;5769;47.998;7.788;2023-07-31T06:27:28;326.63;;;54.05;;
11425;SDS011;5769;47.998;7.788;2023-07-31T06:29:55;326.90;;;54.58;;
11425;SDS011;5769;47.998;7.788;2023-07-31T06:32:22;328.33;;;55.05;;
11425;SDS011;5769;47.998;7.788;2023-07-31T06:34:50;324.88;;;54.20;;
11425;SDS011;5769;47.998;7.788;2023-07-31T06:37:17;326.48;;;53.65;;
11425;SDS011;5769;47.998;7.788;2023-07-31T06:39:44;326.88;;;53.53;;
11425;SDS011;5769;47.998;7.788;2023-07-31T06:42:11;326.45;;;54.30;;
11425;SDS011;5769;47.998;7.788;2023-07-31T06:44:37;327.38;;;55.08;;
11425;SDS011;5769;47.998;7.788;2023-07-31T06:47:04;326.52;;;55.88;;
11425;SDS011;5769;47.998;7.788;2023-07-31T06:49:31;327.60;;;55.53;;
11425;SDS011;5769;47.998;7.788;2023-07-31T06:51:59;327.70;;;54.90;;
11425;SDS011;5769;47.998;7.788;2023-07-31T06:54:26;327.35;;;55.78;;
11425;SDS011;5769;47.998;7.788;2023-07-31T06:56:53;326.10;;;54.63;;
11425;SDS011;5769;47.998;7.788;2023-07-31T06:59:20;326.98;;;54.42;;
11425;SDS011;5769;47.998;7.788;2023-07-31T07:01:46;327.90;;;54.40;;
11425;SDS011;5769;47.998;7.788;2023-07-31T07:04:13;328.42;;;54.83;;
11425;SDS011;5769;47.998;7.788;2023-07-31T07:06:40;325.88;;;53.58;;
11425;SDS011;5769;47.998;7.788;2023-07-31T07:09:08;327.05;;;54.38;;
11425;SDS011;5769;47.998;7.788;2023-07-31T07:11:35;324.33;;;53.67;;
11425;SDS011;5769;47.998;7.788;2023-07-31T07:14:02;327.98;;;53.85;;
11425;SDS011;5769;47.998;7.788;2023-07-31T07:16:29;327.70;;;54.75;;
11425;SDS011;5769;47.998;7.788;2023-07-31T07:18:55;325.60;;;54.58;;
11425;SDS011;5769;47.998;7.788;2023-07-31T07:21:22;323.77;;;53.85;;
11425;SDS011;5769;47.998;7.788;2023-07-31T07:23:49;327.95;;;54.65;;
11425;SDS011;5769;47.998;7.788;2023-07-31T07:26:17;325.30;;;54.08;;
11425;SDS011;5769;47.998;7.788;2023-07-31T07:28:44;326.65;;;53.67;;
11425;SDS011;5769;47.998;7.788;2023-07-31T07:31:10;325.63;;;54.88;;
11425;SDS011;5769;47.998;7.788;2023-07-31T07:33:37;327.13;;;54.30;;
11425;SDS011;5769;47.998;7.788;2023-07-31T07:36:04;325.33;;;55.05;;
11425;SDS011;5769;47.998;7.788;2023-07-31T07:38:34;326.33;;;54.78;;
11425;SDS011;5769;47.998;7.788;2023-07-31T07:41:01;326.88;;;54.75;;
11425;SDS011;5769;47.998;7.788;2023-07-31T07:43:29;324.85;;;54.75;;
11425;SDS011;5769;47.998;7.788;2023-07-31T07:45:55;325.27;;;55.47;;
11425;SDS011;5769;47.998;7.788;2023-07-31T07:48:22;328.20;;;54.95;;
11425;SDS011;5769;47.998;7.788;2023-07-31T07:50:50;328.08;;;54.30;;
11425;SDS011;5769;47.998;7.788;2023-07-31T07:53:16;324.38;;;54.42;;
11425;SDS011;5769;47.998;7.788;2023-07-31T07:55:43;327.08;;;55.45;;
11425;SDS011;5769;47.998;7.788;2023-07-31T07:58:10;325.55;;;54.50;;
11425;SDS011;5769;47.998;7.788;2023-07-31T08:00:38;326.10;;;55.25;;
11425;SDS011;5769;47.998;7.788;2023-07-31T08:03:05;325.88;;;54.13;;
11425;SDS011;5769;47.998;7.788;2023-07-31T08:05:32;325.63;;;54.72;;
11425;SDS011;5769;47.998;7.788;2023-07-31T08:07:59;327.00;;;54.78;;
11425;SDS011;5769;47.998;7.788;2023-07-31T08:10:26;324.85;;;54.75;;
11425;SDS011;5769;47.998;7.788;2023-07-31T08:12:53;327.33;;;55.72;;
11425;SDS011;5769;47.998;7.788;2023-07-31T08:15:20;326.75;;;55.40;;
11425;SDS011;5769;47.998;7.788;2023-07-31T08:17:48;326.95;;;54.58;;
11425;SDS011;5769;47.998;7.788;2023-07-31T08:20:15;326.65;;;55.22;;
11425;SDS011;5769;47.998;7.788;2023-07-31T08:22:42;329.90;;;55.20;;
11425;SDS011;5769;47.998;7.788;2023-07-31T08:25:09;326.90;;;55.25;;
11425;SDS011;5769;47.998;7.788;2023-07-31T08:27:35;326.30;;;54.75;;
11425;SDS011;5769;47.998;7.788;2023-07-31T08:30:02;325.65;;;54.63;;
11425;SDS011;5769;47.998;7.788;2023-07-31T08:32:29;325.65;;;54.70;;
11425;SDS011;5769;47.998;7.788;2023-07-31T08:34:57;324.58;;;55.17;;
11425;SDS011;5769;47.998;7.788;2023-07-31T08:37:24;324.67;;;54.47;;
11425;SDS011;5769;47.998;7.788;2023-07-31T08:39:51;324.67;;;54.75;;
11425;SDS011;5769;47.998;7.788;2023-07-31T08:42:18;338.42;;;56.03;;
11425;SDS011;5769;47.998;7.788;2023-07-31T08:44:45;355.00;;;55.92;;
11425;SDS011;5769;47.998;7.788;2023-07-31T08:47:13;346.52;;;54.88;;
11425;SDS011;5769;47.998;7.788;2023-07-31T08:49:42;337.20;;;55.75;;
11425;SDS011;5769;47.998;7.788;2023-07-31T08:52:11;347.00;;;55.63;;
11425;SDS011;5769;47.998;7.788;2023-07-31T08:54:37;343.45;;;56.17;;
11425;SDS011;5769;47.998;7.788;2023-07-31T08:57:05;379.08;;;55.67;;
11425;SDS011;5769;47.998;7.788;2023-07-31T08:59:33;419.50;;;57.45;;
11425;SDS011;5769;47.998;7.788;2023-07-31T09:02:03;389.35;;;56.05;;
11425;SDS011;5769;47.998;7.788;2023-07-31T09:04:32;374.73;;;57.40;;
11425;SDS011;5769;47.998;7.788;2023-07-31T09:06:59;362.88;;;56.33;;
11425;SDS011;5769;47.998;7.788;2023-07-31T09:09:29;357.45;;;57.15;;
11425;SDS011;5769;47.998;7.788;2023-07-31T09:11:56;350.20;;;55.30;;
11425;SDS011;5769;47.998;7.788;2023-07-31T09:14:24;344.00;;;56.03;;
11425;SDS011;5769;47.998;7.788;2023-07-31T09:16:52;335.77;;;56.10;;
11425;SDS011;5769;47.998;7.788;2023-07-31T09:19:26;335.77;;;56.00;;
11425;SDS011;5769;47.998;7.788;2023-07-31T09:21:54;341.65;;;55.22;;
11425;SDS011;5769;47.998;7.788;2023-07-31T09:24:27;342.02;;;55.70;;
11425;SDS011;5769;47.998;7.788;2023-07-31T09:26:57;339.38;;;56.00;;
11425;SDS011;5769;47.998;7.788;2023-07-31T09:29:24;338.27;;;55.95;;
11425;SDS011;5769;47.998;7.788;2023-07-31T09:31:52;339.48;;;55.55;;
11425;SDS011;5769;47.998;7.788;2023-07-31T09:34:20;333.33;;;55.00;;
11425;SDS011;5769;47.998;7.788;2023-07-31T09:36:54;337.98;;;55.67;;
11425;SDS011;5769;47.998;7.788;2023-07-31T09:39:22;329.40;;;55.55;;
11425;SDS011;5769;47.998;7.788;2023-07-31T09:41:53;336.83;;;54.90;;
11425;SDS011;5769;47.998;7.788;2023-07-31T09:44:22;338.13;;;55.53;;
11425;SDS011;5769;47.998;7.788;2023-07-31T09:47:04;329.50;;;54.50;;
11425;SDS011;5769;47.998;7.788;2023-07-31T09:49:34;328.55;;;55.17;;
11425;SDS011;5769;47.998;7.788;2023-07-31T09:52:01;331.70;;;55.15;;
11425;SDS011;5769;47.998;7.788;2023-07-31T09:54:37;332.80;;;56.17;;
11425;SDS011;5769;47.998;7.788;2023-07-31T09:57:04;334.73;;;55.28;;
11425;SDS011;5769;47.998;7.788;2023-07-31T09:59:32;333.38;;;55.42;;
11425;SDS011;5769;47.998;7.788;2023-07-31T10:01:59;331.65;;;56.10;;
11425;SDS011;5769;47.998;7.788;2023-07-31T10:04:27;330.10;;;57.42;;
11425;SDS011;5769;47.998;7.788;2023-07-31T10:06:55;329.05;;;55.67;;
11425;SDS011;5769;47.998;7.788;2023-07-31T10:09:24;330.58;;;55.95;;
11425;SDS011;5769;47.998;7.788;2023-07-31T10:11:59;331.98;;;56.15;;
11425;SDS011;5769;47.998;7.788;2023-07-31T10:14:26;334.75;;;55.90;;
11425;SDS011;5769;47.998;7.788;2023-07-31T10:16:55;328.52;;;55.50;;
11425;SDS011;5769;47.998;7.788;2023-07-31T10:19:23;328.95;;;55.33;;
11425;SDS011;5769;47.998;7.788;2023-07-31T10:21:50;328.25;;;55.45;;
11425;SDS011;5769;47.998;7.788;2023-07-31T10:24:18;329.60;;;55.90;;
11425;SDS011;5769;47.998;7.788;2023-07-31T10:26:45;328.58;;;56.63;;
11425;SDS011;5769;47.998;7.788;2023-07-31T10:29:14;330.13;;;56.03;;
11425;SDS011;5769;47.998;7.788;2023-07-31T10:31:42;325.73;;;55.50;;
11425;SDS011;5769;47.998;7.788;2023-07-31T10:34:11;330.15;;;56.45;;
11425;SDS011;5769;47.998;7.788;2023-07-31T10:36:39;326.15;;;55.90;;
11425;SDS011;5769;47.998;7.788;2023-07-31T10:39:05;326.63;;;55.45;;
11425;SDS011;5769;47.998;7.788;2023-07-31T10:42:09;323.58;;;55.90;;
11425;SDS011;5769;47.998;7.788;2023-07-31T10:44:36;327.15;;;56.60;;
11425;SDS011;5769;47.998;7.788;2023-07-31T10:47:04;325.73;;;55.95;;
11425;SDS011;5769;47.998;7.788;2023-07-31T10:49:34;326.48;;;55.45;;
11425;SDS011;5769;47.998;7.788;2023-07-31T10:52:02;327.08;;;55.58;;
11425;SDS011;5769;47.998;7.788;2023-07-31T10:54:29;326.60;;;57.58;;
11425;SDS011;5769;47.998;7.788;2023-07-31T10:56:56;324.90;;;55.72;;
11425;SDS011;5769;47.998;7.788;2023-07-31T10:59:26;326.90;;;55.97;;
11425;SDS011;5769;47.998;7.788;2023-07-31T11:01:53;325.80;;;56.17;;
11425;SDS011;5769;47.998;7.788;2023-07-31T11:04:22;325.70;;;55.90;;
11425;SDS011;5769;47.998;7.788;2023-07-31T11:06:57;327.50;;;55.45;;
11425;SDS011;5769;47.998;7.788;2023-07-31T11:09:27;325.00;;;55.88;;
11425;SDS011;5769;47.998;7.788;2023-07-31T11:11:55;328.70;;;55.22;;
11425;SDS011;5769;47.998;7.788;2023-07-31T11:14:22;325.58;;;55.70;;
11425;SDS011;5769;47.998;7.788;2023-07-31T11:16:49;328.00;;;56.10;;
11425;SDS011;5769;47.998;7.788;2023-07-31T11:19:20;327.10;;;56.08;;
11425;SDS011;5769;47.998;7.788;2023-07-31T11:21:48;325.23;;;55.08;;
11425;SDS011;5769;47.998;7.788;2023-07-31T11:24:16;329.15;;;57.00;;
11425;SDS011;5769;47.998;7.788;2023-07-31T11:26:47;325.70;;;55.38;;
11425;SDS011;5769;47.998;7.788;2023-07-31T11:29:15;323.92;;;56.15;;
11425;SDS011;5769;47.998;7.788;2023-07-31T11:31:42;325.95;;;55.90;;
11425;SDS011;5769;47.998;7.788;2023-07-31T11:34:08;326.02;;;55.92;;
11425;SDS011;5769;47.998;7.788;2023-07-31T11:36:35;331.15;;;56.72;;
11425;SDS011;5769;47.998;7.788;2023-07-31T11:39:05;325.00;;;56.03;;
11425;SDS011;5769;47.998;7.788;2023-07-31T11:41:34;323.95;;;56.58;;
11425;SDS011;5769;47.998;7.788;2023-07-31T11:44:01;322.67;;;54.72;;
11425;SDS011;5769;47.998;7.788;2023-07-31T11:46:29;320.90;;;55.83;;
11425;SDS011;5769;47.998;7.788;2023-07-31T11:48:59;324.45;;;55.45;;
11425;SDS011;5769;47.998;7.788;2023-07-31T11:51:26;327.80;;;56.15;;
11425;SDS011;5769;47.998;7.788;2023-07-31T11:53:56;324.75;;;56.05;;
11425;SDS011;5769;47.998;7.788;2023-07-31T11:56:24;325.45;;;56.08;;
11425;SDS011;5769;47.998;7.788;2023-07-31T11:58:55;324.92;;;55.58;;
11425;SDS011;5769;47.998;7.788;2023-07-31T12:01:25;326.48;;;55.35;;
11425;SDS011;5769;47.998;7.788;2023-07-31T12:03:53;322.85;;;54.83;;
11425;SDS011;5769;47.998;7.788;2023-07-31T12:06:20;322.60;;;55.78;;
11425;SDS011;5769;47.998;7.788;2023-07-31T12:08:47;321.92;;;55.25;;
11425;SDS011;5769;47.998;7.788;2023-07-31T12:11:14;321.58;;;55.22;;
11425;SDS011;5769;47.998;7.788;2023-07-31T12:13:42;321.33;;;55.05;;
11425;SDS011;5769;47.998;7.788;2023-07-31T12:16:10;321.85;;;56.45;;
11425;SDS011;5769;47.998;7.788;2023-07-31T12:18:37;322.23;;;55.38;;
11425;SDS011;5769;47.998;7.788;2023-07-31T12:21:05;322.27;;;55.25;;
11425;SDS011;5769;47.998;7.788;2023-07-31T12:23:34;324.25;;;56.83;;
11425;SDS011;5769;47.998;7.788;2023-07-31T12:26:02;322.55;;;56.28;;
11425;SDS011;5769;47.998;7.788;2023-07-31T12:28:30;322.60;;;54.97;;
11425;SDS011;5769;47.998;7.788;2023-07-31T12:31:00;321.38;;;55.40;;
11425;SDS011;5769;47.998;7.788;2023-07-31T12:33:31;321.88;;;55.45;;
11425;SDS011;5769;47.998;7.788;2023-07-31T12:36:00;327.13;;;55.75;;
11425;SDS011;5769;47.998;7.788;2023-07-31T12:38:27;325.70;;;55.50;;
11425;SDS011;5769;47.998;7.788;2023-07-31T12:40:54;323.55;;;56.88;;
11425;SDS011;5769;47.998;7.788;2023-07-31T12:43:21;323.08;;;55.67;;
11425;SDS011;5769;47.998;7.788;2023-07-31T12:45:48;321.77;;;56.33;;
11425;SDS011;5769;47.998;7.788;2023-07-31T12:48:15;321.77;;;55.95;;
11425;SDS011;5769;47.998;7.788;2023-07-31T12:50:43;323.40;;;56.38;;
11425;SDS011;5769;47.998;7.788;2023-07-31T12:53:09;322.05;;;55.83;;
11425;SDS011;5769;47.998;7.788;2023-07-31T12:55:36;322.95;;;56.25;;
11425;SDS011;5769;47.998;7.788;2023-07-31T12:58:03;323.45;;;55.35;;
11425;SDS011;5769;47.998;7.788;2023-07-31T13:00:30;321.02;;;55.28;;
11425;SDS011;5769;47.998;7.788;2023-07-31T13:02:57;321.88;;;55.50;;
11425;SDS011;5769;47.998;7.788;2023-07-31T13:05:23;322.98;;;56.67;;
11425;SDS011;5769;47.998;7.788;2023-07-31T13:07:51;323.65;;;56.05;;
11425;SDS011;5769;47.998;7.788;2023-07-31T13:10:18;320.80;;;55.17;;
11425;SDS011;5769;47.998;7.788;2023-07-31T13:12:45;320.25;;;56.33;;
11425;SDS011;5769;47.998;7.788;2023-07-31T13:15:12;321.70;;;55.55;;
11425;SDS011;5769;47.998;7.788;2023-07-31T13:17:39;319.50;;;56.10;;
11425;SDS011;5769;47.998;7.788;2023-07-31T13:20:07;325.38;;;55.28;;
11425;SDS011;5769;47.998;7.788;2023-07-31T13:22:34;325.17;;;56.25;;
11425;SDS011;5769;47.998;7.788;2023-07-31T13:25:02;321.88;;;55.60;;
11425;SDS011;5769;47.998;7.788;2023-07-31T13:27:29;320.85;;;55.33;;
11425;SDS011;5769;47.998;7.788;2023-07-31T13:29:55;322.20;;;56.53;;
11425;SDS011;5769;47.998;7.788;2023-07-31T13:32:22;324.08;;;55.50;;
11425;SDS011;5769;47.998;7.788;2023-07-31T13:34:49;323.70;;;56.28;;
11425;SDS011;5769;47.998;7.788;2023-07-31T13:37:17;323.73;;;55.63;;
11425;SDS011;5769;47.998;7.788;2023-07-31T13:39:44;322.10;;;55.72;;
11425;SDS011;5769;47.998;7.788;2023-07-31T13:42:12;322.23;;;55.60;;
11425;SDS011;5769;47.998;7.788;2023-07-31T13:44:39;323.27;;;57.08;;
11425;SDS011;5769;47.998;7.788;2023-07-31T13:47:06;321.60;;;56.17;;
11425;SDS011;5769;47.998;7.788;2023-07-31T13:49:33;322.90;;;55.72;;
11425;SDS011;5769;47.998;7.788;2023-07-31T13:52:00;320.52;;;55.72;;
11425;SDS011;5769;47.998;7.788;2023-07-31T13:54:27;321.75;;;55.83;;
11425;SDS011;5769;47.998;7.788;2023-07-31T13:56:54;321.95;;;55.72;;
11425;SDS011;5769;47.998;7.788;2023-07-31T13:59:22;322.95;;;56.70;;
11425;SDS011;5769;47.998;7.788;2023-07-31T14:01:49;324.85;;;56.33;;
11425;SDS011;5769;47.998;7.788;2023-07-31T14:04:16;323.00;;;56.10;;
11425;SDS011;5769;47.998;7.788;2023-07-31T14:06:43;321.55;;;55.60;;
11425;SDS011;5769;47.998;7.788;2023-07-31T14:09:10;321.67;;;55.80;;
11425;SDS011;5769;47.998;7.788;2023-07-31T14:11:36;320.95;;;55.45;;
11425;SDS011;5769;47.998;7.788;2023-07-31T14:14:03;321.17;;;55.22;;
11425;SDS011;5769;47.998;7.788;2023-07-31T14:16:31;321.35;;;55.10;;
11425;SDS011;5769;47.998;7.788;2023-07-31T14:18:58;321.77;;;55.67;;
11425;SDS011;5769;47.998;7.788;2023-07-31T14:21:25;323.10;;;55.55;;
11425;SDS011;5769;47.998;7.788;2023-07-31T14:23:52;320.48;;;55.63;;